sensor_id;sensor_type;location;lat;lon;timestamp;temperature;humidity
12223;DHT22;6174;49.058;8.524;2024-01-10T06:01:42;-2.30;96.80
12223;DHT22;6174;49.058;8.524;2024-01-10T06:04:09;-2.30;96.60
12223;DHT22;6174;49.058;8.524;2024-01-10T06:06:36;-2.40;96.40
12223;DHT22;6174;49.058;8.524;2024-01-10T06:09:03;-2.30;96.60
12223;DHT22;6174;49.058;8.524;2024-01-10T06:11:30;-2.20;96.70
12223;DHT22;6174;49.058;8.524;2024-01-10T06:13:56;-2.30;96.70
12223;DHT22;6174;49.058;8.524;2024-01-10T06:16:23;-2.30;96.60
12223;DHT22;6174;49.058;8.524;2024-01-10T06:18:52;-2.10;96.50
12223;DHT22;6174;49.058;8.524;2024-01-10T06:21:19;-2.30;96.30
12223;DHT22;6174;49.058;8.524;2024-01-10T06:23:45;-2.20;96.40
12223;DHT22;6174;49.058;8.524;2024-01-10T06:26:12;-2.10;96.60
12223;DHT22;6174;49.058;8.524;2024-01-10T06:28:39;-2.00;96.60
12223;DHT22;6174;49.058;8.524;2024-01-10T06:31:06;-1.80;96.30
12223;DHT22;6174;49.058;8.524;2024-01-10T06:33:33;-2.00;96.50
12223;DHT22;6174;49.058;8.524;2024-01-10T06:36:01;-2.20;96.90
12223;DHT22;6174;49.058;8.524;2024-01-10T06:38:28;-2.20;97.10
12223;DHT22;6174;49.058;8.524;2024-01-10T06:40:54;-2.50;97.20
12223;DHT22;6174;49.058;8.524;2024-01-10T06:43:21;-2.50;97.50
12223;DHT22;6174;49.058;8.524;2024-01-10T06:45:49;-2.60;97.90
12223;DHT22;6174;49.058;8.524;2024-01-10T06:48:15;-2.40;98.00
12223;DHT22;6174;49.058;8.524;2024-01-10T06:50:44;-2.60;98.10
12223;DHT22;6174;49.058;8.524;2024-01-10T06:53:12;-2.50;98.30
12223;DHT22;6174;49.058;8.524;2024-01-10T06:55:39;-2.50;98.30
12223;DHT22;6174;49.058;8.524;2024-01-10T06:58:06;-2.60;98.20
12223;DHT22;6174;49.058;8.524;2024-01-10T07:00:32;-2.70;98.10
12223;DHT22;6174;49.058;8.524;2024-01-10T07:03:01;-2.60;98.20
12223;DHT22;6174;49.058;8.524;2024-01-10T07:05:28;-2.60;98.10
12223;DHT22;6174;49.058;8.524;2024-01-10T07:07:57;-2.50;98.10
12223;DHT22;6174;49.058;8.524;2024-01-10T07:10:25;-2.40;97.90
12223;DHT22;6174;49.058;8.524;2024-01-10T07:12:53;-2.40;98.00
12223;DHT22;6174;49.058;8.524;2024-01-10T07:15:20;-2.30;98.10
12223;DHT22;6174;49.058;8.524;2024-01-10T07:17:46;-2.20;97.90
12223;DHT22;6174;49.058;8.524;2024-01-10T07:20:13;-2.20;97.80
12223;DHT22;6174;49.058;8.524;2024-01-10T07:22:40;-2.10;97.70
12223;DHT22;6174;49.058;8.524;2024-01-10T07:25:09;-2.00;97.50
12223;DHT22;6174;49.058;8.524;2024-01-10T07:27:40;-1.90;97.40
12223;DHT22;6174;49.058;8.524;2024-01-10T07:30:08;-1.90;97.40
12223;DHT22;6174;49.058;8.524;2024-01-10T07:32:39;-1.80;97.20
12223;DHT22;6174;49.058;8.524;2024-01-10T07:35:07;-1.80;97.10
12223;DHT22;6174;49.058;8.524;2024-01-10T07:37:35;-1.70;97.10
12223;DHT22;6174;49.058;8.524;2024-01-10T07:40:03;-1.70;97.10
12223;DHT22;6174;49.058;8.524;2024-01-10T07:42:31;-1.80;97.00
12223;DHT22;6174;49.058;8.524;2024-01-10T07:44:59;-2.00;97.40
12223;DHT22;6174;49.058;8.524;2024-01-10T07:47:29;-1.80;97.80
12223;DHT22;6174;49.058;8.524;2024-01-10T07:49:56;-1.70;97.70
12223;DHT22;6174;49.058;8.524;2024-01-10T07:52:23;-1.60;97.50
12223;DHT22;6174;49.058;8.524;2024-01-10T07:54:49;-1.50;97.20
12223;DHT22;6174;49.058;8.524;2024-01-10T07:57:16;-1.50;97.40
12223;DHT22;6174;49.058;8.524;2024-01-10T07:59:44;-1.50;97.30
12223;DHT22;6174;49.058;8.524;2024-01-10T08:02:12;-1.50;97.30
12223;DHT22;6174;49.058;8.524;2024-01-10T08:04:39;-1.60;97.30
12223;DHT22;6174;49.058;8.524;2024-01-10T08:07:06;-1.60;97.20
12223;DHT22;6174;49.058;8.524;2024-01-10T08:09:33;-1.50;97.10
12223;DHT22;6174;49.058;8.524;2024-01-10T08:12:03;-1.60;97.30
12223;DHT22;6174;49.058;8.524;2024-01-10T08:14:30;-1.60;97.40
12223;DHT22;6174;49.058;8.524;2024-01-10T08:16:56;-1.50;97.60
12223;DHT22;6174;49.058;8.524;2024-01-10T08:19:26;-1.50;97.50
12223;DHT22;6174;49.058;8.524;2024-01-10T08:21:52;-1.60;97.50
12223;DHT22;6174;49.058;8.524;2024-01-10T08:24:19;-1.50;97.50
12223;DHT22;6174;49.058;8.524;2024-01-10T08:26:46;-1.50;97.60
12223;DHT22;6174;49.058;8.524;2024-01-10T08:29:15;-1.50;97.60
12223;DHT22;6174;49.058;8.524;2024-01-10T08:31:42;-1.40;97.60
12223;DHT22;6174;49.058;8.524;2024-01-10T08:34:10;-1.30;97.40
12223;DHT22;6174;49.058;8.524;2024-01-10T08:36:38;-1.20;97.40
12223;DHT22;6174;49.058;8.524;2024-01-10T08:39:04;-1.10;97.00
12223;DHT22;6174;49.058;8.524;2024-01-10T08:41:32;-1.10;96.90
12223;DHT22;6174;49.058;8.524;2024-01-10T08:43:59;-1.00;96.80
12223;DHT22;6174;49.058;8.524;2024-01-10T08:46:25;-1.00;96.70
12223;DHT22;6174;49.058;8.524;2024-01-10T08:48:52;-0.90;96.50
12223;DHT22;6174;49.058;8.524;2024-01-10T08:51:19;-0.90;96.00
12223;DHT22;6174;49.058;8.524;2024-01-10T08:53:47;-0.90;96.10
12223;DHT22;6174;49.058;8.524;2024-01-10T08:56:15;-0.80;96.10
12223;DHT22;6174;49.058;8.524;2024-01-10T08:58:42;-0.70;96.00
12223;DHT22;6174;49.058;8.524;2024-01-10T09:01:08;-0.60;96.20
12223;DHT22;6174;49.058;8.524;2024-01-10T09:03:36;-0.70;96.20
12223;DHT22;6174;49.058;8.524;2024-01-10T09:06:03;-0.80;95.60
12223;DHT22;6174;49.058;8.524;2024-01-10T09:08:31;-0.70;95.80
12223;DHT22;6174;49.058;8.524;2024-01-10T09:10:59;-0.60;96.00
12223;DHT22;6174;49.058;8.524;2024-01-10T09:13:25;-0.50;95.90
12223;DHT22;6174;49.058;8.524;2024-01-10T09:15:52;-0.50;95.70
12223;DHT22;6174;49.058;8.524;2024-01-10T09:18:19;-0.60;95.40
12223;DHT22;6174;49.058;8.524;2024-01-10T09:20:46;-0.60;95.60
12223;DHT22;6174;49.058;8.524;2024-01-10T09:23:13;-0.70;95.60
12223;DHT22;6174;49.058;8.524;2024-01-10T09:25:41;-0.80;95.50
12223;DHT22;6174;49.058;8.524;2024-01-10T09:28:09;-0.70;95.60
12223;DHT22;6174;49.058;8.524;2024-01-10T09:30:35;-0.70;95.70
12223;DHT22;6174;49.058;8.524;2024-01-10T09:33:02;-0.50;95.80
12223;DHT22;6174;49.058;8.524;2024-01-10T09:35:29;-0.70;95.50
12223;DHT22;6174;49.058;8.524;2024-01-10T09:37:56;-0.80;95.40
12223;DHT22;6174;49.058;8.524;2024-01-10T09:40:23;-0.60;95.60
12223;DHT22;6174;49.058;8.524;2024-01-10T09:42:53;-0.70;95.40
12223;DHT22;6174;49.058;8.524;2024-01-10T09:45:22;-0.60;95.50
12223;DHT22;6174;49.058;8.524;2024-01-10T09:47:55;-0.70;95.40
12223;DHT22;6174;49.058;8.524;2024-01-10T09:50:22;-0.60;95.50
12223;DHT22;6174;49.058;8.524;2024-01-10T09:52:51;-0.60;95.90
12223;DHT22;6174;49.058;8.524;2024-01-10T09:57:46;-0.60;95.50
12223;DHT22;6174;49.058;8.524;2024-01-10T10:00:15;-0.30;95.60
12223;DHT22;6174;49.058;8.524;2024-01-10T10:02:45;-0.40;95.10
12223;DHT22;6174;49.058;8.524;2024-01-10T10:05:14;-0.60;95.10
12223;DHT22;6174;49.058;8.524;2024-01-10T10:07:45;-0.50;95.50
12223;DHT22;6174;49.058;8.524;2024-01-10T10:10:12;-0.40;95.40
12223;DHT22;6174;49.058;8.524;2024-01-10T10:12:44;-0.20;95.20
12223;DHT22;6174;49.058;8.524;2024-01-10T10:15:13;-0.10;95.40
12223;DHT22;6174;49.058;8.524;2024-01-10T10:17:41;-0.20;95.00
12223;DHT22;6174;49.058;8.524;2024-01-10T10:20:14;-0.20;95.10
12223;DHT22;6174;49.058;8.524;2024-01-10T10:23:00;-0.20;95.30
12223;DHT22;6174;49.058;8.524;2024-01-10T10:25:30;-0.10;95.20
12223;DHT22;6174;49.058;8.524;2024-01-10T10:27:58;-0.10;95.20
12223;DHT22;6174;49.058;8.524;2024-01-10T10:30:25;0.10;95.10
12223;DHT22;6174;49.058;8.524;2024-01-10T10:32:52;0.10;94.70
12223;DHT22;6174;49.058;8.524;2024-01-10T10:35:21;0.10;95.20
12223;DHT22;6174;49.058;8.524;2024-01-10T10:37:48;0.20;95.30
12223;DHT22;6174;49.058;8.524;2024-01-10T10:40:16;0.30;95.10
12223;DHT22;6174;49.058;8.524;2024-01-10T10:42:45;0.40;94.90
12223;DHT22;6174;49.058;8.524;2024-01-10T10:45:15;0.50;95.00
12223;DHT22;6174;49.058;8.524;2024-01-10T10:47:43;0.40;94.50
12223;DHT22;6174;49.058;8.524;2024-01-10T10:50:12;0.40;94.50
12223;DHT22;6174;49.058;8.524;2024-01-10T10:52:45;0.50;94.80
12223;DHT22;6174;49.058;8.524;2024-01-10T10:55:15;0.70;94.60
12223;DHT22;6174;49.058;8.524;2024-01-10T10:57:44;0.80;94.50
12223;DHT22;6174;49.058;8.524;2024-01-10T11:00:12;0.90;94.40
12223;DHT22;6174;49.058;8.524;2024-01-10T11:02:41;1.00;94.30
12223;DHT22;6174;49.058;8.524;2024-01-10T11:05:08;1.10;94.20
12223;DHT22;6174;49.058;8.524;2024-01-10T11:07:35;1.20;93.80
12223;DHT22;6174;49.058;8.524;2024-01-10T11:10:06;1.10;93.50
12223;DHT22;6174;49.058;8.524;2024-01-10T11:12:49;1.20;93.70
12223;DHT22;6174;49.058;8.524;2024-01-10T11:15:31;1.20;93.60
12223;DHT22;6174;49.058;8.524;2024-01-10T11:18:09;1.20;93.40
12223;DHT22;6174;49.058;8.524;2024-01-10T11:21:00;1.10;93.30
12223;DHT22;6174;49.058;8.524;2024-01-10T11:23:42;1.00;92.80
12223;DHT22;6174;49.058;8.524;2024-01-10T11:26:14;1.20;93.30
12223;DHT22;6174;49.058;8.524;2024-01-10T11:28:41;1.40;93.10
12223;DHT22;6174;49.058;8.524;2024-01-10T11:31:08;1.20;92.70
12223;DHT22;6174;49.058;8.524;2024-01-10T11:33:36;1.10;92.70
12223;DHT22;6174;49.058;8.524;2024-01-10T11:36:09;1.10;93.00
12223;DHT22;6174;49.058;8.524;2024-01-10T11:38:39;1.20;92.70
12223;DHT22;6174;49.058;8.524;2024-01-10T11:41:11;1.40;93.00
12223;DHT22;6174;49.058;8.524;2024-01-10T11:43:38;1.50;93.10
12223;DHT22;6174;49.058;8.524;2024-01-10T11:46:05;1.50;92.70
12223;DHT22;6174;49.058;8.524;2024-01-10T11:48:32;1.80;93.00
12223;DHT22;6174;49.058;8.524;2024-01-10T11:51:01;1.70;92.00
12223;DHT22;6174;49.058;8.524;2024-01-10T11:53:42;1.30;91.80
12223;DHT22;6174;49.058;8.524;2024-01-10T11:56:14;1.30;92.20
12223;DHT22;6174;49.058;8.524;2024-01-10T11:58:55;1.30;92.50
12223;DHT22;6174;49.058;8.524;2024-01-10T12:01:22;1.60;92.90
12223;DHT22;6174;49.058;8.524;2024-01-10T12:03:52;1.80;93.10
12223;DHT22;6174;49.058;8.524;2024-01-10T12:06:21;2.00;92.20
12223;DHT22;6174;49.058;8.524;2024-01-10T12:08:48;2.00;92.20
12223;DHT22;6174;49.058;8.524;2024-01-10T12:11:17;2.20;92.70
12223;DHT22;6174;49.058;8.524;2024-01-10T12:13:44;2.10;92.20
12223;DHT22;6174;49.058;8.524;2024-01-10T12:16:12;2.00;91.80
12223;DHT22;6174;49.058;8.524;2024-01-10T12:18:39;1.90;91.60
12223;DHT22;6174;49.058;8.524;2024-01-10T12:21:06;2.10;92.20
12223;DHT22;6174;49.058;8.524;2024-01-10T12:23:34;2.20;91.70
12223;DHT22;6174;49.058;8.524;2024-01-10T12:26:01;2.50;91.90
12223;DHT22;6174;49.058;8.524;2024-01-10T12:28:30;2.20;91.40
12223;DHT22;6174;49.058;8.524;2024-01-10T12:30:57;2.00;91.90
12223;DHT22;6174;49.058;8.524;2024-01-10T12:33:24;1.60;91.80
12223;DHT22;6174;49.058;8.524;2024-01-10T12:36:05;1.90;92.40
12223;DHT22;6174;49.058;8.524;2024-01-10T12:38:33;1.90;92.00
12223;DHT22;6174;49.058;8.524;2024-01-10T12:41:00;2.20;92.60
12223;DHT22;6174;49.058;8.524;2024-01-10T12:43:27;2.60;93.00
12223;DHT22;6174;49.058;8.524;2024-01-10T12:46:05;2.70;92.50
12223;DHT22;6174;49.058;8.524;2024-01-10T12:48:33;2.80;92.10
12223;DHT22;6174;49.058;8.524;2024-01-10T12:51:02;2.80;91.40
12223;DHT22;6174;49.058;8.524;2024-01-10T12:53:31;2.50;91.40
12223;DHT22;6174;49.058;8.524;2024-01-10T12:55:58;2.70;91.50
12223;DHT22;6174;49.058;8.524;2024-01-10T12:58:24;2.50;91.20
12223;DHT22;6174;49.058;8.524;2024-01-10T13:00:51;2.70;92.00
12223;DHT22;6174;49.058;8.524;2024-01-10T13:03:19;2.70;91.40
12223;DHT22;6174;49.058;8.524;2024-01-10T13:05:46;2.80;91.60
12223;DHT22;6174;49.058;8.524;2024-01-10T13:08:13;2.80;91.30
12223;DHT22;6174;49.058;8.524;2024-01-10T13:10:40;2.60;90.80
12223;DHT22;6174;49.058;8.524;2024-01-10T13:13:06;2.30;91.30
12223;DHT22;6174;49.058;8.524;2024-01-10T13:15:34;2.70;92.20
12223;DHT22;6174;49.058;8.524;2024-01-10T13:18:01;2.90;91.60
12223;DHT22;6174;49.058;8.524;2024-01-10T13:20:29;3.10;91.20
12223;DHT22;6174;49.058;8.524;2024-01-10T13:22:55;3.20;91.40
12223;DHT22;6174;49.058;8.524;2024-01-10T13:25:22;3.30;91.20
12223;DHT22;6174;49.058;8.524;2024-01-10T13:27:49;3.10;90.90
12223;DHT22;6174;49.058;8.524;2024-01-10T13:30:17;3.10;90.60
12223;DHT22;6174;49.058;8.524;2024-01-10T13:32:44;3.00;91.00
12223;DHT22;6174;49.058;8.524;2024-01-10T13:35:12;3.30;91.20
12223;DHT22;6174;49.058;8.524;2024-01-10T13:37:40;3.40;91.40
12223;DHT22;6174;49.058;8.524;2024-01-10T13:40:08;3.60;91.20
12223;DHT22;6174;49.058;8.524;2024-01-10T13:42:38;3.00;90.90
12223;DHT22;6174;49.058;8.524;2024-01-10T13:45:05;2.80;91.10
12223;DHT22;6174;49.058;8.524;2024-01-10T13:47:32;2.60;91.30
12223;DHT22;6174;49.058;8.524;2024-01-10T13:49:59;2.70;91.80
12223;DHT22;6174;49.058;8.524;2024-01-10T13:52:26;2.90;91.70
12223;DHT22;6174;49.058;8.524;2024-01-10T13:54:54;3.10;91.80
12223;DHT22;6174;49.058;8.524;2024-01-10T13:57:22;3.40;91.70
12223;DHT22;6174;49.058;8.524;2024-01-10T13:59:49;3.50;91.30
12223;DHT22;6174;49.058;8.524;2024-01-10T14:02:15;3.40;91.10
12223;DHT22;6174;49.058;8.524;2024-01-10T14:04:44;3.40;91.30
12223;DHT22;6174;49.058;8.524;2024-01-10T14:07:11;3.50;91.30
12223;DHT22;6174;49.058;8.524;2024-01-10T14:09:38;3.50;90.90
12223;DHT22;6174;49.058;8.524;2024-01-10T14:12:06;3.60;90.70
12223;DHT22;6174;49.058;8.524;2024-01-10T14:14:33;3.50;90.70
12223;DHT22;6174;49.058;8.524;2024-01-10T14:17:00;3.50;90.80
12223;DHT22;6174;49.058;8.524;2024-01-10T14:19:26;3.20;91.00
12223;DHT22;6174;49.058;8.524;2024-01-10T14:21:53;3.20;91.80
12223;DHT22;6174;49.058;8.524;2024-01-10T14:24:20;3.20;92.10
12223;DHT22;6174;49.058;8.524;2024-01-10T14:26:47;3.20;92.20
12223;DHT22;6174;49.058;8.524;2024-01-10T14:29:15;3.10;92.20
12223;DHT22;6174;49.058;8.524;2024-01-10T14:31:41;3.10;92.20
12223;DHT22;6174;49.058;8.524;2024-01-10T14:34:08;2.70;92.20
12223;DHT22;6174;49.058;8.524;2024-01-10T14:36:37;2.60;92.50
12223;DHT22;6174;49.058;8.524;2024-01-10T14:39:04;2.50;92.80
12223;DHT22;6174;49.058;8.524;2024-01-10T14:41:33;2.30;93.10
12223;DHT22;6174;49.058;8.524;2024-01-10T14:44:00;2.00;93.40
12223;DHT22;6174;49.058;8.524;2024-01-10T14:46:30;2.20;93.70
12223;DHT22;6174;49.058;8.524;2024-01-10T14:48:57;2.10;93.50
12223;DHT22;6174;49.058;8.524;2024-01-10T14:51:23;2.00;93.80
12223;DHT22;6174;49.058;8.524;2024-01-10T14:53:50;1.90;94.00
12223;DHT22;6174;49.058;8.524;2024-01-10T14:56:17;1.80;93.80
12223;DHT22;6174;49.058;8.524;2024-01-10T14:58:44;1.80;94.10
12223;DHT22;6174;49.058;8.524;2024-01-10T15:01:11;1.80;93.90
12223;DHT22;6174;49.058;8.524;2024-01-10T15:03:39;1.90;94.20
12223;DHT22;6174;49.058;8.524;2024-01-10T15:06:08;1.80;94.10
12223;DHT22;6174;49.058;8.524;2024-01-10T15:08:34;1.70;94.00
12223;DHT22;6174;49.058;8.524;2024-01-10T15:11:02;1.60;94.00
12223;DHT22;6174;49.058;8.524;2024-01-10T15:13:28;1.60;94.30
12223;DHT22;6174;49.058;8.524;2024-01-10T15:15:55;1.60;94.50
12223;DHT22;6174;49.058;8.524;2024-01-10T15:18:22;1.50;94.30
12223;DHT22;6174;49.058;8.524;2024-01-10T15:20:50;1.40;94.50
12223;DHT22;6174;49.058;8.524;2024-01-10T15:23:18;1.50;94.80
12223;DHT22;6174;49.058;8.524;2024-01-10T15:25:45;1.30;94.60
12223;DHT22;6174;49.058;8.524;2024-01-10T15:28:12;1.30;94.80
12223;DHT22;6174;49.058;8.524;2024-01-10T15:30:39;1.20;94.90
12223;DHT22;6174;49.058;8.524;2024-01-10T15:33:07;1.30;95.20
12223;DHT22;6174;49.058;8.524;2024-01-10T15:35:35;1.20;95.10
12223;DHT22;6174;49.058;8.524;2024-01-10T15:38:03;1.10;95.20
12223;DHT22;6174;49.058;8.524;2024-01-10T15:40:30;1.10;95.30
12223;DHT22;6174;49.058;8.524;2024-01-10T15:42:57;1.10;95.30
12223;DHT22;6174;49.058;8.524;2024-01-10T15:45:23;1.00;95.50
12223;DHT22;6174;49.058;8.524;2024-01-10T15:47:51;1.00;95.50
12223;DHT22;6174;49.058;8.524;2024-01-10T15:50:17;1.10;95.90
12223;DHT22;6174;49.058;8.524;2024-01-10T15:52:44;1.00;95.60
12223;DHT22;6174;49.058;8.524;2024-01-10T15:55:13;0.90;95.80
12223;DHT22;6174;49.058;8.524;2024-01-10T15:57:40;0.80;95.90
12223;DHT22;6174;49.058;8.524;2024-01-10T16:00:13;0.80;95.90
12223;DHT22;6174;49.058;8.524;2024-01-10T16:02:40;0.70;95.90
12223;DHT22;6174;49.058;8.524;2024-01-10T16:05:07;0.80;96.30
12223;DHT22;6174;49.058;8.524;2024-01-10T16:07:34;0.80;96.20
12223;DHT22;6174;49.058;8.524;2024-01-10T16:10:01;0.70;96.30
12223;DHT22;6174;49.058;8.524;2024-01-10T16:12:30;0.70;96.50
12223;DHT22;6174;49.058;8.524;2024-01-10T16:14:57;0.60;96.80
12223;DHT22;6174;49.058;8.524;2024-01-10T16:17:23;0.60;96.80
12223;DHT22;6174;49.058;8.524;2024-01-10T16:19:54;0.70;96.90
12223;DHT22;6174;49.058;8.524;2024-01-10T16:22:21;0.60;96.70
12223;DHT22;6174;49.058;8.524;2024-01-10T16:24:48;0.50;96.90
12223;DHT22;6174;49.058;8.524;2024-01-10T16:27:20;0.40;97.00
12223;DHT22;6174;49.058;8.524;2024-01-10T16:29:54;0.60;97.20
12223;DHT22;6174;49.058;8.524;2024-01-10T16:32:21;0.50;97.20
12223;DHT22;6174;49.058;8.524;2024-01-10T16:34:48;0.50;97.20
12223;DHT22;6174;49.058;8.524;2024-01-10T16:37:16;0.50;97.10
12223;DHT22;6174;49.058;8.524;2024-01-10T16:39:43;0.50;97.10
12223;DHT22;6174;49.058;8.524;2024-01-10T16:42:11;0.70;97.20
12223;DHT22;6174;49.058;8.524;2024-01-10T16:44:38;0.30;97.20
12223;DHT22;6174;49.058;8.524;2024-01-10T16:47:08;0.30;97.20
12223;DHT22;6174;49.058;8.524;2024-01-10T16:49:36;0.40;97.30
12223;DHT22;6174;49.058;8.524;2024-01-10T16:52:03;0.80;97.40
12223;DHT22;6174;49.058;8.524;2024-01-10T16:54:30;0.20;97.40
12223;DHT22;6174;49.058;8.524;2024-01-10T16:56:57;0.60;97.60
12223;DHT22;6174;49.058;8.524;2024-01-10T16:59:24;0.10;97.60
12223;DHT22;6174;49.058;8.524;2024-01-10T17:01:51;0.30;97.60
12223;DHT22;6174;49.058;8.524;2024-01-10T17:04:19;0.20;97.70
12223;DHT22;6174;49.058;8.524;2024-01-10T17:06:45;0.00;97.60
12223;DHT22;6174;49.058;8.524;2024-01-10T17:09:12;0.20;98.10
12223;DHT22;6174;49.058;8.524;2024-01-10T17:11:44;0.00;97.80
12223;DHT22;6174;49.058;8.524;2024-01-10T17:14:12;-0.10;97.90
12223;DHT22;6174;49.058;8.524;2024-01-10T17:16:42;-0.10;98.10
12223;DHT22;6174;49.058;8.524;2024-01-10T17:19:09;0.00;98.30
12223;DHT22;6174;49.058;8.524;2024-01-10T17:21:37;-0.10;98.30
12223;DHT22;6174;49.058;8.524;2024-01-10T17:24:04;0.00;98.20
12223;DHT22;6174;49.058;8.524;2024-01-10T17:26:31;0.00;98.30
12223;DHT22;6174;49.058;8.524;2024-01-10T17:28:58;0.20;98.30
12223;DHT22;6174;49.058;8.524;2024-01-10T17:31:25;0.00;98.30
12223;DHT22;6174;49.058;8.524;2024-01-10T17:33:52;-0.10;98.30
12223;DHT22;6174;49.058;8.524;2024-01-10T17:36:19;-0.20;98.40
12223;DHT22;6174;49.058;8.524;2024-01-10T17:38:47;-0.20;98.50
12223;DHT22;6174;49.058;8.524;2024-01-10T17:41:14;-0.20;98.50
12223;DHT22;6174;49.058;8.524;2024-01-10T17:43:40;-0.20;98.40
12223;DHT22;6174;49.058;8.524;2024-01-10T17:46:07;-0.10;98.40
12223;DHT22;6174;49.058;8.524;2024-01-10T17:48:34;0.00;98.50
12223;DHT22;6174;49.058;8.524;2024-01-10T17:51:01;0.00;98.40
12223;DHT22;6174;49.058;8.524;2024-01-10T17:53:28;0.00;98.50
12223;DHT22;6174;49.058;8.524;2024-01-10T17:55:57;0.00;98.40
12223;DHT22;6174;49.058;8.524;2024-01-10T17:58:24;-0.10;98.40
12223;DHT22;6174;49.058;8.524;2024-01-10T18:00:51;-0.10;98.50
12223;DHT22;6174;49.058;8.524;2024-01-10T18:03:18;-0.10;98.40
12223;DHT22;6174;49.058;8.524;2024-01-10T18:05:45;0.00;98.40
12223;DHT22;6174;49.058;8.524;2024-01-10T18:08:12;-0.10;98.50
12223;DHT22;6174;49.058;8.524;2024-01-10T18:10:39;-0.10;98.60
12223;DHT22;6174;49.058;8.524;2024-01-10T18:13:07;-0.10;98.70
12223;DHT22;6174;49.058;8.524;2024-01-10T18:15:34;0.10;98.70
12223;DHT22;6174;49.058;8.524;2024-01-10T18:18:00;-0.30;98.70
12223;DHT22;6174;49.058;8.524;2024-01-10T18:20:27;-0.30;98.80
12223;DHT22;6174;49.058;8.524;2024-01-10T18:22:54;-0.30;98.80
12223;DHT22;6174;49.058;8.524;2024-01-10T18:25:21;-0.40;98.80
12223;DHT22;6174;49.058;8.524;2024-01-10T18:27:48;-0.40;98.90
12223;DHT22;6174;49.058;8.524;2024-01-10T18:30:16;-0.50;99.00
12223;DHT22;6174;49.058;8.524;2024-01-10T18:32:43;-0.40;99.10
12223;DHT22;6174;49.058;8.524;2024-01-10T18:35:10;-0.40;99.00
12223;DHT22;6174;49.058;8.524;2024-01-10T18:37:37;-0.40;98.90
12223;DHT22;6174;49.058;8.524;2024-01-10T18:40:04;-0.40;98.90
12223;DHT22;6174;49.058;8.524;2024-01-10T18:42:31;-0.40;99.00
12223;DHT22;6174;49.058;8.524;2024-01-10T18:44:58;-0.10;99.20
12223;DHT22;6174;49.058;8.524;2024-01-10T18:47:26;-0.10;99.40
12223;DHT22;6174;49.058;8.524;2024-01-10T18:49:53;-0.40;99.30
12223;DHT22;6174;49.058;8.524;2024-01-10T18:52:20;-0.40;99.40
12223;DHT22;6174;49.058;8.524;2024-01-10T18:54:47;0.10;99.50
12223;DHT22;6174;49.058;8.524;2024-01-10T18:57:14;-0.10;99.50
12223;DHT22;6174;49.058;8.524;2024-01-10T18:59:42;-0.20;99.20
12223;DHT22;6174;49.058;8.524;2024-01-10T19:02:09;0.60;99.50
12223;DHT22;6174;49.058;8.524;2024-01-10T19:04:38;0.30;99.30
12223;DHT22;6174;49.058;8.524;2024-01-10T19:07:05;-0.40;99.20
12223;DHT22;6174;49.058;8.524;2024-01-10T19:09:32;-0.40;99.10
12223;DHT22;6174;49.058;8.524;2024-01-10T19:11:59;0.30;99.20
12223;DHT22;6174;49.058;8.524;2024-01-10T19:14:29;-0.50;99.20
12223;DHT22;6174;49.058;8.524;2024-01-10T19:16:57;-0.60;99.40
12223;DHT22;6174;49.058;8.524;2024-01-10T19:19:24;-0.70;99.70
12223;DHT22;6174;49.058;8.524;2024-01-10T19:21:53;-0.60;99.60
12223;DHT22;6174;49.058;8.524;2024-01-10T19:24:20;-0.10;99.90
12223;DHT22;6174;49.058;8.524;2024-01-10T19:26:47;-0.60;99.80
12223;DHT22;6174;49.058;8.524;2024-01-10T19:29:14;-0.70;99.80
12223;DHT22;6174;49.058;8.524;2024-01-10T19:31:40;-0.20;99.90
12223;DHT22;6174;49.058;8.524;2024-01-10T19:34:07;-0.60;99.90
12223;DHT22;6174;49.058;8.524;2024-01-10T19:36:35;-0.70;99.90
12223;DHT22;6174;49.058;8.524;2024-01-10T19:39:04;-0.50;99.90
12223;DHT22;6174;49.058;8.524;2024-01-10T19:41:31;-0.70;99.90
12223;DHT22;6174;49.058;8.524;2024-01-10T19:43:58;-0.60;99.90
12223;DHT22;6174;49.058;8.524;2024-01-10T19:46:25;-0.80;99.90
12223;DHT22;6174;49.058;8.524;2024-01-10T19:48:52;-0.30;99.90
12223;DHT22;6174;49.058;8.524;2024-01-10T19:51:19;-0.80;99.90
12223;DHT22;6174;49.058;8.524;2024-01-10T19:53:46;-0.80;99.90
12223;DHT22;6174;49.058;8.524;2024-01-10T19:56:16;-0.20;99.90
12223;DHT22;6174;49.058;8.524;2024-01-10T19:58:43;-0.60;99.90
12223;DHT22;6174;49.058;8.524;2024-01-10T20:01:10;-0.70;99.90
12223;DHT22;6174;49.058;8.524;2024-01-10T20:03:37;-0.80;99.90
12223;DHT22;6174;49.058;8.524;2024-01-10T20:06:05;-0.90;99.90
12223;DHT22;6174;49.058;8.524;2024-01-10T20:08:32;-1.00;99.90
12223;DHT22;6174;49.058;8.524;2024-01-10T20:10:59;-0.90;99.90
12223;DHT22;6174;49.058;8.524;2024-01-10T20:13:27;-0.80;99.90
12223;DHT22;6174;49.058;8.524;2024-01-10T20:15:54;-0.80;99.90
12223;DHT22;6174;49.058;8.524;2024-01-10T20:18:21;-0.40;99.90
12223;DHT22;6174;49.058;8.524;2024-01-10T20:20:47;-0.90;99.90
12223;DHT22;6174;49.058;8.524;2024-01-10T20:23:14;-1.10;99.90
12223;DHT22;6174;49.058;8.524;2024-01-10T20:25:41;-1.00;99.90
12223;DHT22;6174;49.058;8.524;2024-01-10T20:28:12;-0.90;99.90
12223;DHT22;6174;49.058;8.524;2024-01-10T20:30:41;-1.00;99.90
12223;DHT22;6174;49.058;8.524;2024-01-10T20:33:11;-1.40;99.90
12223;DHT22;6174;49.058;8.524;2024-01-10T20:35:38;-1.50;99.90
12223;DHT22;6174;49.058;8.524;2024-01-10T20:38:04;-0.90;99.90
12223;DHT22;6174;49.058;8.524;2024-01-10T20:40:32;-1.40;99.90
12223;DHT22;6174;49.058;8.524;2024-01-10T20:42:59;-0.70;99.90
12223;DHT22;6174;49.058;8.524;2024-01-10T20:45:26;-0.90;99.90
12223;DHT22;6174;49.058;8.524;2024-01-10T20:47:54;-1.50;99.90
12223;DHT22;6174;49.058;8.524;2024-01-10T20:50:21;-1.40;99.90
12223;DHT22;6174;49.058;8.524;2024-01-10T20:52:48;-1.40;99.90
12223;DHT22;6174;49.058;8.524;2024-01-10T20:55:15;-1.40;99.90
12223;DHT22;6174;49.058;8.524;2024-01-10T20:57:42;-1.30;99.90
12223;DHT22;6174;49.058;8.524;2024-01-10T21:00:09;-1.30;99.90
12223;DHT22;6174;49.058;8.524;2024-01-10T21:02:36;-1.40;99.90
12223;DHT22;6174;49.058;8.524;2024-01-10T21:05:06;-1.00;99.90
12223;DHT22;6174;49.058;8.524;2024-01-10T21:07:33;-1.30;99.90
12223;DHT22;6174;49.058;8.524;2024-01-10T21:10:00;-1.30;99.90
12223;DHT22;6174;49.058;8.524;2024-01-10T21:12:27;-1.40;99.90
12223;DHT22;6174;49.058;8.524;2024-01-10T21:14:54;-1.40;99.90
12223;DHT22;6174;49.058;8.524;2024-01-10T21:17:22;-1.30;99.90
12223;DHT22;6174;49.058;8.524;2024-01-10T21:19:50;-1.40;99.90
12223;DHT22;6174;49.058;8.524;2024-01-10T21:22:19;-1.70;99.90
12223;DHT22;6174;49.058;8.524;2024-01-10T21:24:45;-1.70;99.90
12223;DHT22;6174;49.058;8.524;2024-01-10T21:27:12;-1.60;99.90
12223;DHT22;6174;49.058;8.524;2024-01-10T21:29:39;-1.30;99.90
12223;DHT22;6174;49.058;8.524;2024-01-10T21:32:06;-1.70;99.90
12223;DHT22;6174;49.058;8.524;2024-01-10T21:34:33;-1.50;99.90
12223;DHT22;6174;49.058;8.524;2024-01-10T21:37:01;-2.20;99.90
12223;DHT22;6174;49.058;8.524;2024-01-10T21:39:29;-2.20;99.90
12223;DHT22;6174;49.058;8.524;2024-01-10T21:41:56;-2.20;99.90
12223;DHT22;6174;49.058;8.524;2024-01-10T21:44:23;-2.10;99.90
12223;DHT22;6174;49.058;8.524;2024-01-10T21:46:49;-2.00;99.90
12223;DHT22;6174;49.058;8.524;2024-01-10T21:49:17;-1.60;99.90
12223;DHT22;6174;49.058;8.524;2024-01-10T21:51:43;-1.70;99.90
12223;DHT22;6174;49.058;8.524;2024-01-10T21:54:10;-1.40;99.90
12223;DHT22;6174;49.058;8.524;2024-01-10T21:56:39;-2.00;99.90
12223;DHT22;6174;49.058;8.524;2024-01-10T21:59:05;-2.10;99.90